Happy Valentine's Day! 

Flight Track Log - Related Links

Times and Time Zones

All times are in EDT time to prevent confusion due to time zone crossing. See the ASQ5963 flight status page for this flight to view local times or setup timezone preferences in your user account.


Time Position Orientation Groundspeed Altitude Reporting Facility
EDT Latitude Longitude Course Direction KTS MPH feet Rate Location/Type
Wed 06:01:21 AM 42.7278 -73.8081 200° South 165 190 1,400  Level Boston Center
Wed 06:01:27 AM 42.7256 -73.8053 137° Southeast 165 190 1,600 1,867 Climbing Boston Center
Wed 06:02:51 AM 42.6442 -73.8317 193° South 232 267 4,200 2,333 Climbing Boston Center
Wed 06:03:51 AM 42.5728 -73.8611 197° South 255 293 7,200 2,390 Climbing Boston Center
Wed 06:04:00 AM 42.5043 -73.9043 197° South  Level FlightAware Approximate
Wed 06:04:54 AM 42.5142 -73.8933 202° Southwest 260 299 9,100  Level Boston Center
Wed 06:05:00 AM 42.4431 -73.9298 197° South  Level FlightAware Approximate
Wed 06:05:51 AM 42.4344 -73.9311 199° South 271 312 12,000  Level Boston Center
Wed 06:06:00 AM 42.3794 -73.9387 200° South  Level Estimated
Wed 06:06:53 AM 42.3694 -73.9603 198° South 271 312 13,900  Level Boston Center
Wed 06:07:51 AM 42.2853 -74.0089 203° Southwest 287 330 15,900 1,050 Climbing Boston Center
Wed 06:08:53 AM 42.2078 -74.0433 198° South 320 368 16,000 50 Climbing Boston Center
Wed 06:09:51 AM 42.1111 -74.0886 199° South 362 417 16,000 50 Level Boston Center
Wed 06:10:52 AM 42.0125 -74.1333 199° South 370 426 16,100 -250 Climbing Boston Center
Wed 06:11:51 AM 41.9078 -74.1808 199° South 365 420 15,500 -1,008 Descending Boston Center
Wed 06:12:51 AM 41.8281 -74.2119 196° South 347 399 14,100 -1,537 Descending Boston Center
Wed 06:13:52 AM 41.7439 -74.2514 199° South 318 366 12,400 -1,450 Descending Boston Center
Wed 06:14:51 AM 41.6747 -74.2772 196° South 291 335 11,200 -1,361 Descending Boston Center
Wed 06:15:51 AM 41.5950 -74.3139 199° South 285 328 9,700 -1,400 Descending Boston Center
Wed 06:16:51 AM 41.5278 -74.3422 198° South 285 328 8,400 -772 Descending Boston Center
Wed 06:19:13 AM 41.3500 -74.4000 194° South 269 310 7,100 -582 Descending New York TRACON
Wed 06:20:07 AM 41.2833 -74.3667 159° South 284 327 6,500 -684 Descending New York TRACON
Wed 06:21:07 AM 41.2167 -74.3167 151° Southeast 277 319 5,800 -632 Descending New York TRACON
Wed 06:22:01 AM 41.1500 -74.2667 151° Southeast 270 311 5,300 -474 Descending New York TRACON
Wed 06:23:01 AM 41.0833 -74.2167 151° Southeast 284 327 4,900 -476 Descending New York TRACON
Wed 06:24:07 AM 41.0167 -74.1667 150° Southeast 275 316 4,300 -421 Descending New York TRACON
Wed 06:24:55 AM 40.9667 -74.1333 153° Southeast 279 321 4,100 -412 Descending New York TRACON
Wed 06:25:49 AM 40.9000 -74.1000 159° South 276 318 3,600 -684 Descending New York TRACON
Wed 06:26:49 AM 40.8167 -74.0833 171° South 273 314 2,800 -1,050 Descending New York TRACON
Wed 06:27:49 AM 40.7667 -74.1167 207° Southwest 225 259 1,500 -1,053 Descending New York TRACON
Wed 06:28:43 AM 40.7167 -74.1500 207° Southwest 134 154 800 -778 Descending New York TRACON

Login

Don't have an account? Register now (free) for customized features, flight alerts, and more!